createdAt,value
2022-10-04T00:00:47.542Z,100102.22
2022-10-04T00:01:49.705Z,100097.84
2022-10-04T00:03:13.355Z,100095.28
2022-10-04T00:04:24.585Z,100092.06
2022-10-04T00:05:29.194Z,100095.63
2022-10-04T00:06:31.627Z,100087.72
2022-10-04T00:07:55.675Z,100089.38
2022-10-04T00:09:23.393Z,100086.72
2022-10-04T00:10:34.151Z,100085.78
2022-10-04T00:11:38.325Z,100086.59
2022-10-04T00:12:52.186Z,100086.59
2022-10-04T00:13:58.680Z,100091.81
2022-10-04T00:15:05.661Z,100091.81
2022-10-04T00:16:21.003Z,100085.81
2022-10-04T00:17:27.167Z,100072.97
2022-10-04T00:18:40.399Z,100071.31
2022-10-04T00:19:46.961Z,100081.66
2022-10-04T00:20:53.190Z,100084.25
2022-10-04T00:21:56.238Z,100080.78
2022-10-04T00:23:23.263Z,100077.22
2022-10-04T00:24:32.498Z,100080.72
2022-10-04T00:25:36.416Z,100078.94
2022-10-04T00:26:38.505Z,100079.81
2022-10-04T00:28:16.426Z,100074.59
2022-10-04T00:29:39.603Z,100074.59
2022-10-04T00:30:41.939Z,100056.31
2022-10-04T00:32:11.798Z,100064.13
2022-10-04T00:33:38.588Z,100070.19
2022-10-04T00:34:50.054Z,100075.47
2022-10-04T00:35:52.328Z,100067.63
2022-10-04T00:36:55.814Z,100074.66
2022-10-04T00:38:00.829Z,100072.06
2022-10-04T00:39:08.867Z,100071.13
2022-10-04T00:40:17.917Z,100061.59
2022-10-04T00:41:21.029Z,100070.34
2022-10-04T00:42:32.886Z,100057.38
2022-10-04T00:43:43.886Z,100064.38
2022-10-04T00:44:53.911Z,100053.22
2022-10-04T00:46:02.450Z,100064.50
2022-10-04T00:47:19.744Z,100064.38
2022-10-04T00:48:31.932Z,100047.94
2022-10-04T00:49:40.231Z,100047.88
2022-10-04T00:51:04.483Z,100057.25
2022-10-04T00:52:16.838Z,100058.06
2022-10-04T00:53:23.236Z,100062.47
2022-10-04T00:54:30.835Z,100057.25
2022-10-04T00:55:36.451Z,100051.97
2022-10-04T00:56:46.324Z,100064.28
2022-10-04T00:57:50.599Z,100063.34
2022-10-04T00:58:57.257Z,100050.53
2022-10-04T01:00:05.306Z,100052.38
2022-10-04T01:01:09.197Z,100065.66
2022-10-04T01:02:21.590Z,100055.25
2022-10-04T01:03:28.351Z,100054.50
2022-10-04T01:04:49.790Z,100049.28
2022-10-04T01:05:57.313Z,100062.44
2022-10-04T01:07:02.849Z,100064.28
2022-10-04T01:08:18.517Z,100056.47
2022-10-04T01:09:22.506Z,100056.50
2022-10-04T01:10:30.722Z,100056.63
2022-10-04T01:11:41.783Z,100063.38
2022-10-04T01:13:02.886Z,100054.59
2022-10-04T01:14:31.550Z,100056.28
2022-10-04T01:15:43.030Z,100057.00
2022-10-04T01:16:46.114Z,100049.25
2022-10-04T01:18:09.185Z,100052.25
2022-10-04T01:19:26.612Z,100043.34
2022-10-04T01:20:33.526Z,100043.19
2022-10-04T01:21:38.513Z,100037.06
2022-10-04T01:22:43.961Z,100034.34
2022-10-04T01:23:54.541Z,100023.91
2022-10-04T01:24:57.385Z,100037.00
2022-10-04T01:25:59.523Z,100035.69
2022-10-04T01:27:02.027Z,100028.69
2022-10-04T01:28:04.576Z,100018.25
2022-10-04T01:29:26.744Z,100033.09
2022-10-04T01:30:28.984Z,100033.09
2022-10-04T01:31:34.126Z,100026.88
2022-10-04T01:32:38.494Z,100031.47
2022-10-04T01:33:41.050Z,100025.25
2022-10-04T01:34:44.598Z,100014.75
2022-10-04T01:35:48.110Z,100015.47
2022-10-04T01:36:54.157Z,100015.34
2022-10-04T01:37:56.352Z,100006.63
2022-10-04T01:38:58.588Z,100000.56
2022-10-04T01:40:01.089Z,100004.75
2022-10-04T01:41:05.904Z,100010.88
2022-10-04T01:42:27.349Z,100001.75
2022-10-04T01:43:35.405Z,99997.44
2022-10-04T01:44:45.193Z,99998.50
2022-10-04T01:45:53.170Z,99992.41
2022-10-04T01:46:59.348Z,100007.09
2022-10-04T01:48:06.460Z,99998.25
2022-10-04T01:49:16.309Z,99993.09
2022-10-04T01:50:31.353Z,99995.81
2022-10-04T01:51:38.309Z,99992.41
2022-10-04T01:52:49.387Z,99984.47
2022-10-04T01:54:01.758Z,99986.13
2022-10-04T01:55:16.900Z,99989.63
2022-10-04T01:56:24.342Z,99982.84
2022-10-04T01:57:39.072Z,99981.03
2022-10-04T01:58:50.794Z,99972.28
2022-10-04T02:00:01.387Z,99971.22
2022-10-04T02:01:14.763Z,99960.78
2022-10-04T02:02:35.556Z,99971.38
2022-10-04T02:03:43.893Z,99979.34
2022-10-04T02:04:53.442Z,99974.78
2022-10-04T02:06:01.107Z,99973.78
2022-10-04T02:07:04.493Z,99973.59
2022-10-04T02:08:11.900Z,99976.06
2022-10-04T02:09:18.593Z,99976.88
2022-10-04T02:10:23.306Z,99977.00
2022-10-04T02:11:30.108Z,99977.91
2022-10-04T02:12:34.776Z,99970.09
2022-10-04T02:13:40.020Z,99977.91
2022-10-04T02:14:52.507Z,99979.59
2022-10-04T02:15:55.270Z,99970.00
2022-10-04T02:16:59.820Z,99972.56
2022-10-04T02:18:05.573Z,99976.81
2022-10-04T02:19:09.390Z,99974.50
2022-10-04T02:20:23.891Z,99970.25
2022-10-04T02:21:26.373Z,99959.22
2022-10-04T02:22:29.005Z,99960.31
2022-10-04T02:23:32.555Z,99965.44
2022-10-04T02:24:39.925Z,99974.94
2022-10-04T02:25:42.183Z,99969.81
2022-10-04T02:26:50.487Z,99960.91
2022-10-04T02:27:56.334Z,99962.53
2022-10-04T02:28:58.770Z,99953.72
2022-10-04T02:30:10.767Z,99964.44
2022-10-04T02:31:31.728Z,99958.38
2022-10-04T02:32:53.278Z,99962.00
2022-10-04T02:33:58.195Z,99950.69
2022-10-04T02:35:00.461Z,99961.00
2022-10-04T02:36:02.824Z,99959.25
2022-10-04T02:37:05.698Z,99953.88
2022-10-04T02:38:30.157Z,99964.16
2022-10-04T02:39:45.441Z,99955.34
2022-10-04T02:40:59.225Z,99954.34
2022-10-04T02:42:10.253Z,99956.75
2022-10-04T02:43:20.048Z,99957.44
2022-10-04T02:44:33.571Z,99955.63
2022-10-04T02:45:47.803Z,99953.72
2022-10-04T02:47:18.373Z,99954.25
2022-10-04T02:48:56.613Z,99946.38
2022-10-04T02:50:06.149Z,99936.97
2022-10-04T02:51:23.461Z,99938.59
2022-10-04T02:52:34.238Z,99942.94
2022-10-04T02:53:39.194Z,99937.72
2022-10-04T02:55:02.467Z,99931.84
2022-10-04T02:56:05.254Z,99936.19
2022-10-04T02:57:16.266Z,99924.06
2022-10-04T02:58:23.340Z,99926.34
2022-10-04T02:59:26.058Z,99920.16
2022-10-04T03:00:31.356Z,99929.25
2022-10-04T03:01:43.766Z,99927.41
2022-10-04T03:03:08.007Z,99923.69
2022-10-04T03:04:15.021Z,99922.78
2022-10-04T03:05:17.345Z,99923.69
2022-10-04T03:06:22.295Z,99927.31
2022-10-04T03:07:25.438Z,99926.50
2022-10-04T03:08:30.694Z,99924.09
2022-10-04T03:09:36.328Z,99923.94
2022-10-04T03:10:39.077Z,99918.59
2022-10-04T03:11:42.482Z,99921.25
2022-10-04T03:12:50.778Z,99917.72
2022-10-04T03:13:56.316Z,99914.19
2022-10-04T03:14:58.607Z,99914.34
2022-10-04T03:16:01.227Z,99907.38
2022-10-04T03:17:05.232Z,99898.56
2022-10-04T03:18:07.564Z,99905.16
2022-10-04T03:19:12.224Z,99906.09
2022-10-04T03:20:16.224Z,99894.41
2022-10-04T03:21:20.083Z,99895.34
2022-10-04T03:22:23.249Z,99899.53
2022-10-04T03:23:25.497Z,99904.56
2022-10-04T03:24:39.527Z,99909.53
2022-10-04T03:25:50.263Z,99891.22
2022-10-04T03:26:55.789Z,99905.66
2022-10-04T03:28:02.777Z,99893.31
2022-10-04T03:29:10.657Z,99901.09
2022-10-04T03:30:14.632Z,99887.94
2022-10-04T03:31:19.795Z,99886.09
2022-10-04T03:32:22.614Z,99891.25
2022-10-04T03:33:26.958Z,99891.38
2022-10-04T03:34:38.008Z,99887.94
2022-10-04T03:35:40.589Z,99888.09
2022-10-04T03:36:44.681Z,99889.84
2022-10-04T03:37:46.956Z,99885.47
2022-10-04T03:38:52.256Z,99890.06
2022-10-04T03:39:56.811Z,99894.69
2022-10-04T03:41:01.088Z,99889.41
2022-10-04T03:42:07.854Z,99895.59
2022-10-04T03:43:12.506Z,99895.56
2022-10-04T03:44:18.611Z,99891.47
2022-10-04T03:45:23.546Z,99906.94
2022-10-04T03:46:28.225Z,99884.97
2022-10-04T03:47:41.292Z,99890.94
2022-10-04T03:48:46.778Z,99891.66
2022-10-04T03:49:51.161Z,99888.25
2022-10-04T03:50:53.950Z,99891.69
2022-10-04T03:51:58.802Z,99889.84
2022-10-04T03:53:27.094Z,99891.50
2022-10-04T03:54:30.620Z,99896.72
2022-10-04T03:55:44.407Z,99870.66
2022-10-04T03:56:47.574Z,99881.88
2022-10-04T03:57:51.951Z,99885.22
2022-10-04T03:58:55.223Z,99873.78
2022-10-04T03:59:59.005Z,99871.88
2022-10-04T04:01:19.475Z,99878.88
2022-10-04T04:02:45.640Z,99879.06
2022-10-04T04:03:59.917Z,99879.16
2022-10-04T04:05:26.448Z,99888.75
2022-10-04T04:06:51.522Z,99876.47
2022-10-04T04:08:12.636Z,99875.38
2022-10-04T04:09:23.952Z,99873.66
2022-10-04T04:10:37.038Z,99878.03
2022-10-04T04:11:39.465Z,99881.38
2022-10-04T04:12:52.308Z,99885.63
2022-10-04T04:14:07.399Z,99883.69
2022-10-04T04:15:14.500Z,99881.06
2022-10-04T04:16:26.039Z,99878.41
2022-10-04T04:17:38.889Z,99882.75
2022-10-04T04:18:43.959Z,99881.13
2022-10-04T04:19:46.503Z,99881.38
2022-10-04T04:20:51.639Z,99879.94
2022-10-04T04:21:55.946Z,99887.13
2022-10-04T04:23:12.739Z,99876.63
2022-10-04T04:24:26.649Z,99886.41
2022-10-04T04:25:32.874Z,99880.41
2022-10-04T04:26:47.418Z,99884.69
2022-10-04T04:27:52.263Z,99888.00
2022-10-04T04:29:03.271Z,99887.81
2022-10-04T04:30:08.365Z,99889.47
2022-10-04T04:31:20.785Z,99886.81
2022-10-04T04:32:31.023Z,99887.63
2022-10-04T04:33:42.791Z,99892.31
2022-10-04T04:34:54.178Z,99888.28
2022-10-04T04:36:04.801Z,99889.13
2022-10-04T04:37:10.808Z,99892.81
2022-10-04T04:38:25.290Z,99906.22
2022-10-04T04:39:37.086Z,99910.50
2022-10-04T04:40:39.350Z,99904.59
2022-10-04T04:41:43.090Z,99905.34
2022-10-04T04:42:49.019Z,99908.13
2022-10-04T04:43:51.237Z,99908.81
2022-10-04T04:44:57.844Z,99904.31
2022-10-04T04:46:22.669Z,99907.97
2022-10-04T04:47:42.368Z,99902.66
2022-10-04T04:48:47.092Z,99911.00
2022-10-04T04:49:49.876Z,99910.94
2022-10-04T04:50:55.832Z,99914.53
2022-10-04T04:51:58.046Z,99913.63
2022-10-04T04:53:10.285Z,99911.16
2022-10-04T04:54:12.692Z,99909.38
2022-10-04T04:55:50.074Z,99910.84
2022-10-04T04:56:57.323Z,99909.91
2022-10-04T04:57:59.886Z,99904.75
2022-10-04T04:59:04.371Z,99895.09
2022-10-04T05:00:07.396Z,99893.44
2022-10-04T05:01:23.502Z,99888.50
2022-10-04T05:02:29.563Z,99899.03
2022-10-04T05:03:33.908Z,99911.94
2022-10-04T05:04:36.249Z,99907.34
2022-10-04T05:05:38.410Z,99896.69
2022-10-04T05:06:49.125Z,99907.06
2022-10-04T05:08:20.473Z,99903.66
2022-10-04T05:09:23.587Z,99903.59
2022-10-04T05:10:33.691Z,99910.69
2022-10-04T05:11:39.227Z,99895.84
2022-10-04T05:12:41.963Z,99903.28
2022-10-04T05:13:57.076Z,99899.09
2022-10-04T05:14:59.637Z,99903.56
2022-10-04T05:16:02.195Z,99898.34
2022-10-04T05:17:05.632Z,99899.19
2022-10-04T05:18:31.778Z,99908.03
2022-10-04T05:19:37.694Z,99899.25
2022-10-04T05:20:50.331Z,99905.00
2022-10-04T05:21:55.735Z,99903.84
2022-10-04T05:22:59.010Z,99911.53
2022-10-04T05:24:18.393Z,99903.66
2022-10-04T05:25:33.761Z,99909.50
2022-10-04T05:26:36.210Z,99913.91
2022-10-04T05:27:42.358Z,99909.59
2022-10-04T05:28:44.800Z,99922.91
2022-10-04T05:29:55.817Z,99910.69
2022-10-04T05:31:11.455Z,99917.69
2022-10-04T05:32:37.752Z,99911.69
2022-10-04T05:33:54.119Z,99921.31
2022-10-04T05:34:57.600Z,99918.81
2022-10-04T05:36:13.717Z,99923.34
2022-10-04T05:37:44.126Z,99920.75
2022-10-04T05:38:57.776Z,99925.75
2022-10-04T05:40:35.669Z,99922.09
2022-10-04T05:41:48.915Z,99922.66
2022-10-04T05:42:52.297Z,99922.44
2022-10-04T05:43:54.916Z,99917.38
2022-10-04T05:44:58.638Z,99929.22
2022-10-04T05:46:43.368Z,99923.00
2022-10-04T05:47:50.486Z,99930.78
2022-10-04T05:48:55.775Z,99922.16
2022-10-04T05:50:01.033Z,99932.59
2022-10-04T05:51:14.807Z,99933.53
2022-10-04T05:52:27.872Z,99934.47
2022-10-04T05:53:31.266Z,99925.00
2022-10-04T05:54:35.689Z,99926.66
2022-10-04T05:55:47.157Z,99927.34
2022-10-04T05:57:24.922Z,99929.94
2022-10-04T05:58:39.844Z,99933.34
2022-10-04T06:00:01.894Z,99923.09
2022-10-04T06:01:23.194Z,99930.22
2022-10-04T06:02:51.750Z,99928.31
2022-10-04T06:04:12.360Z,99930.78
2022-10-04T06:05:25.600Z,99927.38
2022-10-04T06:06:57.119Z,99930.00
2022-10-04T06:08:33.273Z,99923.78
2022-10-04T06:10:00.577Z,99915.81
2022-10-04T06:11:09.887Z,99922.63
2022-10-04T06:12:47.797Z,99906.91
2022-10-04T06:14:09.069Z,99919.66
2022-10-04T06:15:42.073Z,99917.13
2022-10-04T06:16:58.662Z,99922.34
2022-10-04T06:18:20.576Z,99918.88
2022-10-04T06:19:46.773Z,99903.19
2022-10-04T06:21:19.354Z,99912.41
2022-10-04T06:22:23.441Z,99908.66
2022-10-04T06:23:27.783Z,99909.31
2022-10-04T06:24:34.634Z,99896.97
2022-10-04T06:25:42.234Z,99903.88
2022-10-04T06:26:53.914Z,99904.53
2022-10-04T06:28:17.364Z,99895.69
2022-10-04T06:29:33.000Z,99899.00
2022-10-04T06:31:01.599Z,99894.38
2022-10-04T06:32:23.419Z,99900.44
2022-10-04T06:33:49.215Z,99901.38
2022-10-04T06:35:30.506Z,99910.00
2022-10-04T06:37:10.117Z,99912.56
2022-10-04T06:38:38.537Z,99906.97
2022-10-04T06:40:06.047Z,99906.97
2022-10-04T06:41:18.185Z,99904.25
2022-10-04T06:42:42.212Z,99903.50
2022-10-04T06:44:17.669Z,99909.50
2022-10-04T06:45:41.595Z,99916.41
2022-10-04T06:46:52.511Z,99913.44
2022-10-04T06:48:13.237Z,99922.19
2022-10-04T06:49:29.659Z,99918.50
2022-10-04T06:50:52.681Z,99924.78
2022-10-04T06:52:21.813Z,99918.56
2022-10-04T06:53:48.324Z,99917.25
2022-10-04T06:55:02.377Z,99925.00
2022-10-04T06:56:31.289Z,99922.34
2022-10-04T06:57:41.671Z,99919.34
2022-10-04T06:59:02.887Z,99928.72
2022-10-04T07:00:18.747Z,99931.78
2022-10-04T07:01:35.211Z,99935.53
2022-10-04T07:02:50.155Z,99945.00
2022-10-04T07:03:54.953Z,99931.81
2022-10-04T07:05:18.431Z,99947.00
2022-10-04T07:06:27.792Z,99944.34
2022-10-04T07:07:37.188Z,99947.75
2022-10-04T07:08:41.372Z,99951.22
2022-10-04T07:09:45.623Z,99946.06
2022-10-04T07:10:55.402Z,99956.63
2022-10-04T07:13:10.107Z,99953.00
2022-10-04T07:14:18.631Z,99956.44
2022-10-04T07:15:28.776Z,99949.19
2022-10-04T07:16:39.657Z,99951.59
2022-10-04T07:17:45.619Z,99968.34
2022-10-04T07:19:13.049Z,99960.56
2022-10-04T07:20:32.159Z,99965.06
2022-10-04T07:21:45.370Z,99967.56
2022-10-04T07:22:58.340Z,99972.69
2022-10-04T07:24:03.622Z,99973.53
2022-10-04T07:25:25.598Z,99971.63
2022-10-04T07:26:36.310Z,99971.63
2022-10-04T07:28:16.724Z,99977.78
2022-10-04T07:29:33.687Z,99973.28
2022-10-04T07:30:39.969Z,99967.28
2022-10-04T07:31:44.088Z,99968.97
2022-10-04T07:32:51.700Z,99964.88
2022-10-04T07:34:03.772Z,99966.75
2022-10-04T07:35:35.366Z,99965.09
2022-10-04T07:36:45.284Z,99962.25
2022-10-04T07:37:58.067Z,99968.09
2022-10-04T07:39:13.683Z,99969.03
2022-10-04T07:40:29.271Z,99968.88
2022-10-04T07:41:46.136Z,99971.47
2022-10-04T07:42:54.735Z,99966.94
2022-10-04T07:44:04.250Z,99965.34
2022-10-04T07:45:25.826Z,99961.44
2022-10-04T07:46:51.068Z,99960.22
2022-10-04T07:48:09.892Z,99963.09
2022-10-04T07:49:14.889Z,99968.44
2022-10-04T07:50:32.093Z,99965.88
2022-10-04T07:51:59.284Z,99956.53
2022-10-04T07:53:22.030Z,99957.28
2022-10-04T07:54:44.664Z,99962.59
2022-10-04T07:56:02.624Z,99954.44
2022-10-04T07:57:37.867Z,99963.75
2022-10-04T07:58:45.798Z,99957.22
2022-10-04T08:00:13.061Z,99962.22
2022-10-04T08:01:42.795Z,99963.69
2022-10-04T08:02:51.243Z,99963.09
2022-10-04T08:04:05.435Z,99963.53
2022-10-04T08:05:36.343Z,99965.53
2022-10-04T08:06:58.723Z,99963.59
2022-10-04T08:08:13.069Z,99972.13
2022-10-04T08:09:52.038Z,99976.25
2022-10-04T08:10:59.852Z,99984.03
2022-10-04T08:12:25.287Z,99978.00
2022-10-04T08:14:03.224Z,99978.16
2022-10-04T08:15:27.719Z,99974.56
2022-10-04T08:16:45.834Z,99982.53
2022-10-04T08:17:56.995Z,99980.25
2022-10-04T08:19:13.225Z,99970.34
2022-10-04T08:20:36.359Z,99979.06
2022-10-04T08:22:03.830Z,99979.03
2022-10-04T08:23:15.077Z,99980.34
2022-10-04T08:24:40.144Z,99983.06
2022-10-04T08:26:12.804Z,99986.84
2022-10-04T08:28:05.154Z,99987.94
2022-10-04T08:29:41.137Z,99991.25
2022-10-04T08:31:12.550Z,99990.59
2022-10-04T08:32:23.106Z,99992.28
2022-10-04T08:34:06.593Z,99979.19
2022-10-04T08:35:09.583Z,99991.94
2022-10-04T08:36:43.775Z,99989.59
2022-10-04T08:38:11.244Z,99987.81
2022-10-04T08:39:55.876Z,99993.25
2022-10-04T08:41:21.002Z,99990.50
2022-10-04T08:43:04.459Z,99996.78
2022-10-04T08:44:27.654Z,99986.50
2022-10-04T08:46:10.960Z,99998.88
2022-10-04T08:47:22.101Z,99989.44
2022-10-04T08:48:45.238Z,99998.97
2022-10-04T08:50:13.595Z,99997.19
2022-10-04T08:51:43.814Z,99992.41
2022-10-04T08:52:48.718Z,99992.78
2022-10-04T08:54:05.949Z,99978.09
2022-10-04T08:55:29.199Z,99985.69
2022-10-04T08:56:43.979Z,99987.09
2022-10-04T08:58:10.557Z,99987.22
2022-10-04T08:59:40.488Z,99989.72
2022-10-04T09:01:15.687Z,99993.41
2022-10-04T09:02:42.532Z,99993.75
2022-10-04T09:04:14.858Z,99990.91
2022-10-04T09:05:38.724Z,99993.66
2022-10-04T09:06:45.032Z,100002.00
2022-10-04T09:07:58.022Z,99994.66
2022-10-04T09:09:02.921Z,99985.28
2022-10-04T09:10:34.062Z,99989.72
2022-10-04T09:12:09.141Z,99990.63
2022-10-04T09:13:53.680Z,99983.97
2022-10-04T09:15:16.607Z,99989.19
2022-10-04T09:16:22.120Z,99982.59
2022-10-04T09:17:39.054Z,99988.00
2022-10-04T09:19:07.433Z,99987.13
2022-10-04T09:20:37.647Z,99973.25
2022-10-04T09:21:46.422Z,99981.63
2022-10-04T09:23:06.700Z,99988.97
2022-10-04T09:24:17.603Z,99986.53
2022-10-04T09:25:27.624Z,99980.38
2022-10-04T09:26:51.726Z,99983.50
2022-10-04T09:28:17.399Z,99997.19
2022-10-04T09:29:50.259Z,99981.00
2022-10-04T09:31:11.369Z,99983.97
2022-10-04T09:32:46.164Z,99984.84
2022-10-04T09:34:23.940Z,99984.13
2022-10-04T09:36:04.679Z,99978.34
2022-10-04T09:37:41.884Z,99981.97
2022-10-04T09:39:30.981Z,99982.28
2022-10-04T09:40:54.693Z,99980.41
2022-10-04T09:42:16.673Z,99980.13
2022-10-04T09:43:27.572Z,99987.84
2022-10-04T09:44:35.543Z,99978.59
2022-10-04T09:45:59.676Z,99985.75
2022-10-04T09:47:12.925Z,99984.53
2022-10-04T09:48:56.363Z,99983.50
2022-10-04T09:50:26.625Z,99993.47
2022-10-04T09:51:41.971Z,99972.63
2022-10-04T09:53:21.286Z,99993.31
2022-10-04T09:55:05.262Z,99999.91
2022-10-04T09:56:29.079Z,99997.69
2022-10-04T09:58:12.418Z,99992.47
2022-10-04T09:59:34.182Z,99980.63
2022-10-04T10:00:50.496Z,99985.00
2022-10-04T10:02:04.434Z,99987.44
2022-10-04T10:03:12.142Z,99993.09
2022-10-04T10:04:38.114Z,99992.41
2022-10-04T10:06:05.099Z,99994.00
2022-10-04T10:07:44.827Z,99990.38
2022-10-04T10:09:18.485Z,99995.38
2022-10-04T10:10:59.688Z,99996.84
2022-10-04T10:12:42.846Z,99994.09
2022-10-04T10:14:13.208Z,99990.06
2022-10-04T10:15:32.899Z,100000.22
2022-10-04T10:16:42.014Z,99996.38
2022-10-04T10:18:07.780Z,100003.19
2022-10-04T10:19:37.153Z,99984.69
2022-10-04T10:20:46.604Z,99992.41
2022-10-04T10:22:00.622Z,99985.72
2022-10-04T10:23:33.975Z,99993.59
2022-10-04T10:24:45.655Z,99989.28
2022-10-04T10:26:15.124Z,99998.69
2022-10-04T10:27:52.343Z,99983.34
2022-10-04T10:29:28.077Z,99983.34
2022-10-04T10:30:37.902Z,99977.69
2022-10-04T10:31:51.272Z,99982.38
2022-10-04T10:33:11.985Z,99985.97
2022-10-04T10:34:46.659Z,99989.59
2022-10-04T10:36:33.211Z,99985.41
2022-10-04T10:37:53.772Z,99981.78
2022-10-04T10:39:13.842Z,99981.38
2022-10-04T10:40:46.669Z,99974.25
2022-10-04T10:42:13.576Z,99987.31
2022-10-04T10:43:20.082Z,99981.94
2022-10-04T10:44:50.005Z,99975.75
2022-10-04T10:46:15.413Z,99977.00
2022-10-04T10:47:36.497Z,99975.19
2022-10-04T10:49:01.852Z,99970.41
2022-10-04T10:50:25.929Z,99967.72
2022-10-04T10:52:06.145Z,99973.38
2022-10-04T10:54:00.861Z,99973.34
2022-10-04T10:55:26.823Z,99971.47
2022-10-04T10:57:05.130Z,99962.38
2022-10-04T10:58:48.831Z,99976.16
2022-10-04T11:00:01.345Z,99979.31
2022-10-04T11:01:16.852Z,99970.41
2022-10-04T11:02:50.009Z,99974.41
2022-10-04T11:04:29.503Z,99970.03
2022-10-04T11:06:09.795Z,99963.41
2022-10-04T11:07:53.302Z,99963.84
2022-10-04T11:09:17.028Z,99964.78
2022-10-04T11:10:41.957Z,99961.66
2022-10-04T11:12:18.460Z,99962.72
2022-10-04T11:13:29.525Z,99971.50
2022-10-04T11:15:06.084Z,99962.28
2022-10-04T11:16:53.528Z,99967.06
2022-10-04T11:18:04.746Z,99957.66
2022-10-04T11:19:35.529Z,99958.03
2022-10-04T11:20:47.284Z,99963.91
2022-10-04T11:22:17.172Z,99953.19
2022-10-04T11:23:37.526Z,99942.34
2022-10-04T11:24:59.361Z,99955.75
2022-10-04T11:26:39.826Z,99954.03
2022-10-04T11:27:49.745Z,99953.50
2022-10-04T11:28:58.970Z,99946.88
2022-10-04T11:30:24.631Z,99942.47
2022-10-04T11:31:55.805Z,99946.78
2022-10-04T11:33:28.848Z,99948.13
2022-10-04T11:35:11.910Z,99943.00
2022-10-04T11:36:56.219Z,99938.38
2022-10-04T11:38:09.034Z,99926.72
2022-10-04T11:39:46.506Z,99932.38
2022-10-04T11:41:38.172Z,99943.13
2022-10-04T11:42:46.102Z,99932.69
2022-10-04T11:43:50.048Z,99931.19
2022-10-04T11:45:06.562Z,99937.31
2022-10-04T11:46:24.597Z,99927.41
2022-10-04T11:47:56.406Z,99929.94
2022-10-04T11:49:37.140Z,99925.69
2022-10-04T11:51:03.201Z,99929.59
2022-10-04T11:52:17.586Z,99930.13
2022-10-04T11:53:39.387Z,99924.69
2022-10-04T11:55:12.380Z,99926.97
2022-10-04T11:56:21.375Z,99923.31
2022-10-04T11:57:47.627Z,99910.75
2022-10-04T11:59:17.666Z,99917.97
2022-10-04T12:00:25.322Z,99925.59
2022-10-04T12:01:38.582Z,99935.72
2022-10-04T12:03:09.213Z,99922.81
2022-10-04T12:04:49.612Z,99937.22
2022-10-04T12:06:09.978Z,99917.91
2022-10-04T12:07:12.076Z,99927.56
2022-10-04T12:08:37.849Z,99912.03
2022-10-04T12:09:48.544Z,99925.88
2022-10-04T12:11:21.523Z,99923.72
2022-10-04T12:12:57.348Z,99922.13
2022-10-04T12:14:24.683Z,99916.75
2022-10-04T12:15:32.963Z,99921.97
2022-10-04T12:17:25.159Z,99928.88
2022-10-04T12:18:53.032Z,99927.50
2022-10-04T12:20:28.672Z,99914.69
2022-10-04T12:21:42.280Z,99912.56
2022-10-04T12:23:07.258Z,99919.59
2022-10-04T12:24:13.126Z,99916.72
2022-10-04T12:25:47.823Z,99914.47
2022-10-04T12:27:14.573Z,99914.91
2022-10-04T12:28:34.548Z,99906.78
2022-10-04T12:30:14.347Z,99907.59
2022-10-04T12:31:22.994Z,99911.63
2022-10-04T12:32:45.416Z,99904.84
2022-10-04T12:34:14.550Z,99903.63
2022-10-04T12:35:52.822Z,99905.53
2022-10-04T12:37:13.548Z,99900.41
2022-10-04T12:38:37.266Z,99909.72
2022-10-04T12:39:50.536Z,99896.41
2022-10-04T12:41:00.010Z,99890.16
2022-10-04T12:42:20.658Z,99890.31
2022-10-04T12:43:42.779Z,99897.75
2022-10-04T12:44:58.297Z,99893.31
2022-10-04T12:46:39.078Z,99890.81
2022-10-04T12:48:05.765Z,99895.69
2022-10-04T12:49:26.469Z,99896.53
2022-10-04T12:51:02.652Z,99889.97
2022-10-04T12:52:16.129Z,99891.38
2022-10-04T12:53:46.964Z,99896.09
2022-10-04T12:55:08.886Z,99890.47
2022-10-04T12:56:28.392Z,99890.81
2022-10-04T12:57:41.316Z,99887.63
2022-10-04T12:58:46.046Z,99880.09
2022-10-04T13:00:03.795Z,99888.34
2022-10-04T13:01:24.096Z,99883.94
2022-10-04T13:02:38.216Z,99887.81
2022-10-04T13:04:17.390Z,99887.00
2022-10-04T13:05:47.613Z,99883.00
2022-10-04T13:07:15.334Z,99885.13
2022-10-04T13:08:29.605Z,99881.06
2022-10-04T13:10:23.135Z,99873.50
2022-10-04T13:11:52.221Z,99875.66
2022-10-04T13:13:32.472Z,99876.59
2022-10-04T13:14:53.885Z,99872.03
2022-10-04T13:18:07.601Z,99887.56
2022-10-04T13:19:22.265Z,99878.41
2022-10-04T13:20:37.670Z,99879.44
2022-10-04T13:22:01.247Z,99871.88
2022-10-04T13:23:26.803Z,99879.66
2022-10-04T13:25:07.691Z,99873.06
2022-10-04T13:26:42.105Z,99872.78
2022-10-04T13:28:06.659Z,99878.28
2022-10-04T13:29:14.864Z,99875.97
2022-10-04T13:30:24.305Z,99866.56
2022-10-04T13:31:41.352Z,99878.72
2022-10-04T13:32:52.991Z,99874.50
2022-10-04T13:34:07.083Z,99874.34
2022-10-04T13:35:45.487Z,99880.34
2022-10-04T13:37:07.916Z,99880.41
2022-10-04T13:38:32.187Z,99872.66
2022-10-04T13:39:40.284Z,99877.16
2022-10-04T13:40:45.129Z,99872.38
2022-10-04T13:42:10.139Z,99870.91
2022-10-04T13:43:29.391Z,99874.91
2022-10-04T13:45:18.306Z,99875.00
2022-10-04T13:46:32.316Z,99864.59
2022-10-04T13:48:03.614Z,99860.13
2022-10-04T13:49:29.485Z,99875.16
2022-10-04T13:50:49.476Z,99862.53
2022-10-04T13:52:39.958Z,99858.97
2022-10-04T13:54:15.847Z,99862.44
2022-10-04T13:55:54.211Z,99857.94
2022-10-04T13:57:18.121Z,99853.59
2022-10-04T13:58:52.662Z,99854.88
2022-10-04T14:00:15.860Z,99849.97
2022-10-04T14:02:10.171Z,99863.31
2022-10-04T14:03:30.875Z,99859.88
2022-10-04T14:04:57.744Z,99853.63
2022-10-04T14:06:21.922Z,99861.09
2022-10-04T14:07:42.633Z,99857.91
2022-10-04T14:09:13.611Z,99862.09
2022-10-04T14:10:52.774Z,99863.63
2022-10-04T14:12:06.734Z,99859.03
2022-10-04T14:13:44.351Z,99856.25
2022-10-04T14:15:29.391Z,99858.78
2022-10-04T14:17:13.337Z,99857.31
2022-10-04T14:18:21.364Z,99851.50
2022-10-04T14:20:09.809Z,99857.69
2022-10-04T14:21:43.195Z,99849.13
2022-10-04T14:23:07.274Z,99853.84
2022-10-04T14:24:37.306Z,99849.22
2022-10-04T14:25:58.595Z,99842.44
2022-10-04T14:27:22.255Z,99839.03
2022-10-04T14:28:43.589Z,99836.50
2022-10-04T14:30:08.092Z,99831.59
2022-10-04T14:31:48.377Z,99835.84
2022-10-04T14:33:35.132Z,99828.72
2022-10-04T14:34:58.078Z,99841.19
2022-10-04T14:36:06.068Z,99837.00
2022-10-04T14:37:26.678Z,99829.44
2022-10-04T14:38:38.605Z,99831.75
2022-10-04T14:40:05.017Z,99827.97
2022-10-04T14:41:39.003Z,99830.66
2022-10-04T14:43:05.711Z,99826.50
2022-10-04T14:44:25.768Z,99816.84
2022-10-04T14:45:46.410Z,99828.03
2022-10-04T14:47:13.739Z,99828.13
2022-10-04T14:48:42.595Z,99826.00
2022-10-04T14:49:47.886Z,99813.31
2022-10-04T14:51:25.117Z,99818.34
2022-10-04T14:53:14.843Z,99824.72
2022-10-04T14:54:22.926Z,99814.81
2022-10-04T14:55:50.899Z,99814.69
2022-10-04T14:57:02.482Z,99818.00
2022-10-04T14:58:13.671Z,99823.19
2022-10-04T14:59:44.692Z,99823.00
2022-10-04T15:01:00.144Z,99821.50
2022-10-04T15:02:27.021Z,99823.66
2022-10-04T15:03:46.649Z,99826.84
2022-10-04T15:04:48.856Z,99827.25
2022-10-04T15:05:54.762Z,99823.66
2022-10-04T15:07:38.726Z,99815.31
2022-10-04T15:08:51.257Z,99823.34
2022-10-04T15:10:16.218Z,99814.94